sensor_id;sensor_type;location;lat;lon;timestamp;temperature;humidity
20654;DHT22;21083;50.898;4.902;2022-09-09T00:00:44;16.90;99.90
20654;DHT22;21083;50.898;4.902;2022-09-09T00:03:17;16.90;99.90
20654;DHT22;21083;50.898;4.902;2022-09-09T00:05:53;16.90;99.90
20654;DHT22;21083;50.898;4.902;2022-09-09T00:08:27;16.90;99.90
20654;DHT22;21083;50.898;4.902;2022-09-09T00:10:58;16.80;99.90
20654;DHT22;21083;50.898;4.902;2022-09-09T00:13:33;16.80;99.90
20654;DHT22;21083;50.898;4.902;2022-09-09T00:16:04;16.80;99.90
20654;DHT22;21083;50.898;4.902;2022-09-09T00:18:45;16.80;99.90
20654;DHT22;21083;50.898;4.902;2022-09-09T00:21:17;16.80;99.90
20654;DHT22;21083;50.898;4.902;2022-09-09T00:23:46;16.80;99.90
20654;DHT22;21083;50.898;4.902;2022-09-09T00:26:21;16.60;99.90
20654;DHT22;21083;50.898;4.902;2022-09-09T00:28:55;16.60;99.90
20654;DHT22;21083;50.898;4.902;2022-09-09T00:31:29;16.60;99.90
20654;DHT22;21083;50.898;4.902;2022-09-09T00:34:00;16.60;99.90
20654;DHT22;21083;50.898;4.902;2022-09-09T00:36:31;16.60;99.90
20654;DHT22;21083;50.898;4.902;2022-09-09T00:39:00;16.60;99.90
20654;DHT22;21083;50.898;4.902;2022-09-09T00:41:39;16.60;99.90
20654;DHT22;21083;50.898;4.902;2022-09-09T00:44:19;16.60;99.90
20654;DHT22;21083;50.898;4.902;2022-09-09T00:46:59;16.60;99.90
20654;DHT22;21083;50.898;4.902;2022-09-09T00:49:39;16.60;99.90
20654;DHT22;21083;50.898;4.902;2022-09-09T00:52:24;16.50;99.90
20654;DHT22;21083;50.898;4.902;2022-09-09T00:54:59;16.40;99.90
20654;DHT22;21083;50.898;4.902;2022-09-09T00:57:30;16.30;99.90
20654;DHT22;21083;50.898;4.902;2022-09-09T01:00:17;16.30;99.90
20654;DHT22;21083;50.898;4.902;2022-09-09T01:05:37;16.10;99.90
20654;DHT22;21083;50.898;4.902;2022-09-09T01:08:12;16.10;99.90
20654;DHT22;21083;50.898;4.902;2022-09-09T01:10:47;16.20;99.90
20654;DHT22;21083;50.898;4.902;2022-09-09T01:13:22;16.20;99.90
20654;DHT22;21083;50.898;4.902;2022-09-09T01:15:53;16.20;99.90
20654;DHT22;21083;50.898;4.902;2022-09-09T01:18:22;16.20;99.90
20654;DHT22;21083;50.898;4.902;2022-09-09T01:20:59;16.20;99.90
20654;DHT22;21083;50.898;4.902;2022-09-09T01:23:42;16.20;99.90
20654;DHT22;21083;50.898;4.902;2022-09-09T01:26:23;16.30;99.90
20654;DHT22;21083;50.898;4.902;2022-09-09T01:28:52;16.20;99.90
20654;DHT22;21083;50.898;4.902;2022-09-09T01:31:21;16.30;99.90
20654;DHT22;21083;50.898;4.902;2022-09-09T01:33:50;16.30;99.90
20654;DHT22;21083;50.898;4.902;2022-09-09T01:36:29;16.30;99.90
20654;DHT22;21083;50.898;4.902;2022-09-09T01:38:58;16.40;99.90
20654;DHT22;21083;50.898;4.902;2022-09-09T01:41:27;16.40;99.90
20654;DHT22;21083;50.898;4.902;2022-09-09T01:43:55;16.40;99.90
20654;DHT22;21083;50.898;4.902;2022-09-09T01:46:23;16.40;99.90
20654;DHT22;21083;50.898;4.902;2022-09-09T01:48:51;16.50;99.90
20654;DHT22;21083;50.898;4.902;2022-09-09T01:51:19;16.40;99.90
20654;DHT22;21083;50.898;4.902;2022-09-09T01:53:46;16.40;99.90
20654;DHT22;21083;50.898;4.902;2022-09-09T01:56:24;16.40;99.90
20654;DHT22;21083;50.898;4.902;2022-09-09T01:59:01;16.40;99.90
20654;DHT22;21083;50.898;4.902;2022-09-09T02:01:37;16.40;99.90
20654;DHT22;21083;50.898;4.902;2022-09-09T02:04:18;16.40;99.90
20654;DHT22;21083;50.898;4.902;2022-09-09T02:06:53;16.40;99.90
20654;DHT22;21083;50.898;4.902;2022-09-09T02:09:23;16.40;99.90
20654;DHT22;21083;50.898;4.902;2022-09-09T02:11:54;16.40;99.90
20654;DHT22;21083;50.898;4.902;2022-09-09T02:14:28;16.40;99.90
20654;DHT22;21083;50.898;4.902;2022-09-09T02:17:01;16.40;99.90
20654;DHT22;21083;50.898;4.902;2022-09-09T02:19:32;16.40;99.90
20654;DHT22;21083;50.898;4.902;2022-09-09T02:22:00;16.50;99.90
20654;DHT22;21083;50.898;4.902;2022-09-09T02:24:32;16.50;99.90
20654;DHT22;21083;50.898;4.902;2022-09-09T02:27:01;16.40;99.90
20654;DHT22;21083;50.898;4.902;2022-09-09T02:29:34;16.40;99.90
20654;DHT22;21083;50.898;4.902;2022-09-09T02:32:05;16.40;99.90
20654;DHT22;21083;50.898;4.902;2022-09-09T02:34:35;16.50;99.90
20654;DHT22;21083;50.898;4.902;2022-09-09T02:37:04;16.50;99.90
20654;DHT22;21083;50.898;4.902;2022-09-09T02:39:33;16.50;99.90
20654;DHT22;21083;50.898;4.902;2022-09-09T02:42:00;16.40;99.90
20654;DHT22;21083;50.898;4.902;2022-09-09T02:44:30;16.40;99.90
20654;DHT22;21083;50.898;4.902;2022-09-09T02:47:15;16.40;99.90
20654;DHT22;21083;50.898;4.902;2022-09-09T02:49:49;16.40;99.90
20654;DHT22;21083;50.898;4.902;2022-09-09T02:52:28;16.40;99.90
20654;DHT22;21083;50.898;4.902;2022-09-09T02:55:04;16.30;99.90
20654;DHT22;21083;50.898;4.902;2022-09-09T02:57:33;16.30;99.90
20654;DHT22;21083;50.898;4.902;2022-09-09T03:00:03;16.40;99.90
20654;DHT22;21083;50.898;4.902;2022-09-09T03:02:30;16.40;99.90
20654;DHT22;21083;50.898;4.902;2022-09-09T03:04:57;16.40;99.90
20654;DHT22;21083;50.898;4.902;2022-09-09T03:07:24;16.50;99.90
20654;DHT22;21083;50.898;4.902;2022-09-09T03:09:52;16.40;99.90
20654;DHT22;21083;50.898;4.902;2022-09-09T03:12:20;16.40;99.90
20654;DHT22;21083;50.898;4.902;2022-09-09T03:14:47;16.30;99.90
20654;DHT22;21083;50.898;4.902;2022-09-09T03:17:15;16.30;99.90
20654;DHT22;21083;50.898;4.902;2022-09-09T03:19:42;16.30;99.90
20654;DHT22;21083;50.898;4.902;2022-09-09T03:22:10;16.30;99.90
20654;DHT22;21083;50.898;4.902;2022-09-09T03:24:37;16.30;99.90
20654;DHT22;21083;50.898;4.902;2022-09-09T03:27:03;16.30;99.90
20654;DHT22;21083;50.898;4.902;2022-09-09T03:29:30;16.30;99.90
20654;DHT22;21083;50.898;4.902;2022-09-09T03:31:58;16.40;99.90
20654;DHT22;21083;50.898;4.902;2022-09-09T03:34:26;16.30;99.90
20654;DHT22;21083;50.898;4.902;2022-09-09T03:36:53;16.30;99.90
20654;DHT22;21083;50.898;4.902;2022-09-09T03:39:21;16.30;99.90
20654;DHT22;21083;50.898;4.902;2022-09-09T03:41:48;16.30;99.90
20654;DHT22;21083;50.898;4.902;2022-09-09T03:44:14;16.40;99.90
20654;DHT22;21083;50.898;4.902;2022-09-09T03:46:41;16.30;99.90
20654;DHT22;21083;50.898;4.902;2022-09-09T03:49:08;16.30;99.90
20654;DHT22;21083;50.898;4.902;2022-09-09T03:51:37;16.30;99.90
20654;DHT22;21083;50.898;4.902;2022-09-09T03:54:04;16.30;99.90
20654;DHT22;21083;50.898;4.902;2022-09-09T03:56:34;16.20;99.90
20654;DHT22;21083;50.898;4.902;2022-09-09T03:59:01;16.20;99.90
20654;DHT22;21083;50.898;4.902;2022-09-09T04:01:28;16.20;99.90
20654;DHT22;21083;50.898;4.902;2022-09-09T04:03:55;16.20;99.90
20654;DHT22;21083;50.898;4.902;2022-09-09T04:06:24;16.10;99.90
20654;DHT22;21083;50.898;4.902;2022-09-09T04:08:52;16.10;99.90
20654;DHT22;21083;50.898;4.902;2022-09-09T04:11:20;16.20;99.90
20654;DHT22;21083;50.898;4.902;2022-09-09T04:13:47;16.10;99.90
20654;DHT22;21083;50.898;4.902;2022-09-09T04:16:14;16.10;99.90
20654;DHT22;21083;50.898;4.902;2022-09-09T04:18:42;16.20;99.90
20654;DHT22;21083;50.898;4.902;2022-09-09T04:21:09;16.20;99.90
20654;DHT22;21083;50.898;4.902;2022-09-09T04:23:38;16.20;99.90
20654;DHT22;21083;50.898;4.902;2022-09-09T04:26:06;16.10;99.90
20654;DHT22;21083;50.898;4.902;2022-09-09T04:28:35;16.10;99.90
20654;DHT22;21083;50.898;4.902;2022-09-09T04:31:07;16.00;99.90
20654;DHT22;21083;50.898;4.902;2022-09-09T04:33:35;16.00;99.90
20654;DHT22;21083;50.898;4.902;2022-09-09T04:36:02;16.10;99.90
20654;DHT22;21083;50.898;4.902;2022-09-09T04:38:29;16.00;99.90
20654;DHT22;21083;50.898;4.902;2022-09-09T04:40:56;16.10;99.90
20654;DHT22;21083;50.898;4.902;2022-09-09T04:43:24;16.00;99.90
20654;DHT22;21083;50.898;4.902;2022-09-09T04:45:56;16.10;99.90
20654;DHT22;21083;50.898;4.902;2022-09-09T04:48:23;16.00;99.90
20654;DHT22;21083;50.898;4.902;2022-09-09T04:50:55;16.00;99.90
20654;DHT22;21083;50.898;4.902;2022-09-09T04:53:22;16.00;99.90
20654;DHT22;21083;50.898;4.902;2022-09-09T04:55:51;16.00;99.90
20654;DHT22;21083;50.898;4.902;2022-09-09T04:58:18;16.00;99.90
20654;DHT22;21083;50.898;4.902;2022-09-09T05:00:48;16.10;99.90
20654;DHT22;21083;50.898;4.902;2022-09-09T05:03:16;16.00;99.90
20654;DHT22;21083;50.898;4.902;2022-09-09T05:05:43;16.10;99.90
20654;DHT22;21083;50.898;4.902;2022-09-09T05:08:10;16.00;99.90
20654;DHT22;21083;50.898;4.902;2022-09-09T05:10:38;16.00;99.90
20654;DHT22;21083;50.898;4.902;2022-09-09T05:13:07;16.10;99.90
20654;DHT22;21083;50.898;4.902;2022-09-09T05:15:34;16.20;99.90
20654;DHT22;21083;50.898;4.902;2022-09-09T05:18:03;16.10;99.90
20654;DHT22;21083;50.898;4.902;2022-09-09T05:20:30;16.10;99.90
20654;DHT22;21083;50.898;4.902;2022-09-09T05:22:57;16.20;99.90
20654;DHT22;21083;50.898;4.902;2022-09-09T05:25:24;16.10;99.90
20654;DHT22;21083;50.898;4.902;2022-09-09T05:27:52;16.00;99.90
20654;DHT22;21083;50.898;4.902;2022-09-09T05:30:20;16.00;99.90
20654;DHT22;21083;50.898;4.902;2022-09-09T05:32:47;16.10;99.90
20654;DHT22;21083;50.898;4.902;2022-09-09T05:35:16;16.00;99.90
20654;DHT22;21083;50.898;4.902;2022-09-09T05:37:44;15.90;99.90
20654;DHT22;21083;50.898;4.902;2022-09-09T05:40:12;15.90;99.90
20654;DHT22;21083;50.898;4.902;2022-09-09T05:42:39;15.90;99.90
20654;DHT22;21083;50.898;4.902;2022-09-09T05:45:06;16.00;99.90
20654;DHT22;21083;50.898;4.902;2022-09-09T05:47:34;16.00;99.90
20654;DHT22;21083;50.898;4.902;2022-09-09T05:50:03;16.10;99.90
20654;DHT22;21083;50.898;4.902;2022-09-09T05:52:32;16.20;99.90
20654;DHT22;21083;50.898;4.902;2022-09-09T05:54:59;16.20;99.90
20654;DHT22;21083;50.898;4.902;2022-09-09T05:57:25;16.20;99.90
20654;DHT22;21083;50.898;4.902;2022-09-09T05:59:52;16.10;99.90
20654;DHT22;21083;50.898;4.902;2022-09-09T06:02:20;16.20;99.90
20654;DHT22;21083;50.898;4.902;2022-09-09T06:04:47;16.20;99.90
20654;DHT22;21083;50.898;4.902;2022-09-09T06:07:14;16.20;99.90
20654;DHT22;21083;50.898;4.902;2022-09-09T06:09:42;16.30;99.90
20654;DHT22;21083;50.898;4.902;2022-09-09T06:12:09;16.30;99.90
20654;DHT22;21083;50.898;4.902;2022-09-09T06:14:36;16.30;99.90
20654;DHT22;21083;50.898;4.902;2022-09-09T06:17:03;16.40;99.90
20654;DHT22;21083;50.898;4.902;2022-09-09T06:19:30;16.50;99.90
20654;DHT22;21083;50.898;4.902;2022-09-09T06:21:57;16.60;99.90
20654;DHT22;21083;50.898;4.902;2022-09-09T06:24:24;16.60;99.90
20654;DHT22;21083;50.898;4.902;2022-09-09T06:26:52;16.60;99.90
20654;DHT22;21083;50.898;4.902;2022-09-09T06:29:19;16.60;99.90
20654;DHT22;21083;50.898;4.902;2022-09-09T06:31:46;16.80;99.90
20654;DHT22;21083;50.898;4.902;2022-09-09T06:34:14;16.90;99.90
20654;DHT22;21083;50.898;4.902;2022-09-09T06:36:41;16.90;99.90
20654;DHT22;21083;50.898;4.902;2022-09-09T06:39:08;16.80;99.90
20654;DHT22;21083;50.898;4.902;2022-09-09T06:41:36;16.70;99.90
20654;DHT22;21083;50.898;4.902;2022-09-09T06:44:05;16.80;99.90
20654;DHT22;21083;50.898;4.902;2022-09-09T06:46:32;16.70;99.90
20654;DHT22;21083;50.898;4.902;2022-09-09T06:48:59;16.70;99.90
20654;DHT22;21083;50.898;4.902;2022-09-09T06:51:27;16.60;99.90
20654;DHT22;21083;50.898;4.902;2022-09-09T06:53:55;16.80;99.90
20654;DHT22;21083;50.898;4.902;2022-09-09T06:56:24;16.70;99.90
20654;DHT22;21083;50.898;4.902;2022-09-09T06:58:52;16.80;99.90
20654;DHT22;21083;50.898;4.902;2022-09-09T07:01:23;16.80;99.90
20654;DHT22;21083;50.898;4.902;2022-09-09T07:03:52;17.10;99.90
20654;DHT22;21083;50.898;4.902;2022-09-09T07:06:21;17.00;99.90
20654;DHT22;21083;50.898;4.902;2022-09-09T07:08:50;17.00;99.90
20654;DHT22;21083;50.898;4.902;2022-09-09T07:11:18;17.20;99.90
20654;DHT22;21083;50.898;4.902;2022-09-09T07:13:46;17.20;99.90
20654;DHT22;21083;50.898;4.902;2022-09-09T07:16:14;17.30;99.90
20654;DHT22;21083;50.898;4.902;2022-09-09T07:18:43;17.30;99.90
20654;DHT22;21083;50.898;4.902;2022-09-09T07:21:12;17.40;99.90
20654;DHT22;21083;50.898;4.902;2022-09-09T07:23:40;17.30;99.90
20654;DHT22;21083;50.898;4.902;2022-09-09T07:26:12;17.30;99.90
20654;DHT22;21083;50.898;4.902;2022-09-09T07:28:39;17.30;99.90
20654;DHT22;21083;50.898;4.902;2022-09-09T07:31:08;17.40;99.90
20654;DHT22;21083;50.898;4.902;2022-09-09T07:33:40;17.30;99.90
20654;DHT22;21083;50.898;4.902;2022-09-09T07:36:12;17.20;99.90
20654;DHT22;21083;50.898;4.902;2022-09-09T07:38:39;17.20;99.90
20654;DHT22;21083;50.898;4.902;2022-09-09T07:41:08;17.30;99.90
20654;DHT22;21083;50.898;4.902;2022-09-09T07:43:37;17.50;99.90
20654;DHT22;21083;50.898;4.902;2022-09-09T07:46:05;17.50;99.90
20654;DHT22;21083;50.898;4.902;2022-09-09T07:48:32;17.60;99.90
20654;DHT22;21083;50.898;4.902;2022-09-09T07:51:07;17.70;99.90
20654;DHT22;21083;50.898;4.902;2022-09-09T07:53:37;17.80;99.90
20654;DHT22;21083;50.898;4.902;2022-09-09T07:56:07;17.70;99.90
20654;DHT22;21083;50.898;4.902;2022-09-09T07:58:35;17.80;99.90
20654;DHT22;21083;50.898;4.902;2022-09-09T08:01:06;17.70;99.90
20654;DHT22;21083;50.898;4.902;2022-09-09T08:03:35;17.50;99.90
20654;DHT22;21083;50.898;4.902;2022-09-09T08:06:03;17.40;99.90
20654;DHT22;21083;50.898;4.902;2022-09-09T08:08:32;17.40;99.90
20654;DHT22;21083;50.898;4.902;2022-09-09T08:11:06;17.50;99.90
20654;DHT22;21083;50.898;4.902;2022-09-09T08:13:35;17.50;99.90
20654;DHT22;21083;50.898;4.902;2022-09-09T08:16:06;17.50;99.90
20654;DHT22;21083;50.898;4.902;2022-09-09T08:18:34;17.50;99.90
20654;DHT22;21083;50.898;4.902;2022-09-09T08:21:09;17.50;99.90
20654;DHT22;21083;50.898;4.902;2022-09-09T08:23:37;17.50;99.90
20654;DHT22;21083;50.898;4.902;2022-09-09T08:26:09;17.70;99.90
20654;DHT22;21083;50.898;4.902;2022-09-09T08:28:36;17.70;99.90
20654;DHT22;21083;50.898;4.902;2022-09-09T08:31:08;17.70;99.90
20654;DHT22;21083;50.898;4.902;2022-09-09T08:33:35;17.70;99.90
20654;DHT22;21083;50.898;4.902;2022-09-09T08:36:05;17.80;99.90
20654;DHT22;21083;50.898;4.902;2022-09-09T08:38:32;17.80;99.90
20654;DHT22;21083;50.898;4.902;2022-09-09T08:41:20;17.80;99.90
20654;DHT22;21083;50.898;4.902;2022-09-09T08:43:50;17.80;99.90
20654;DHT22;21083;50.898;4.902;2022-09-09T08:46:29;17.90;99.90
20654;DHT22;21083;50.898;4.902;2022-09-09T08:49:05;17.80;99.90
20654;DHT22;21083;50.898;4.902;2022-09-09T08:51:33;17.90;99.90
20654;DHT22;21083;50.898;4.902;2022-09-09T08:54:02;18.10;99.90
20654;DHT22;21083;50.898;4.902;2022-09-09T08:56:32;18.20;99.90
20654;DHT22;21083;50.898;4.902;2022-09-09T08:59:02;18.20;99.90
20654;DHT22;21083;50.898;4.902;2022-09-09T09:01:39;18.10;99.90
20654;DHT22;21083;50.898;4.902;2022-09-09T09:04:17;17.90;99.90
20654;DHT22;21083;50.898;4.902;2022-09-09T09:06:54;17.80;99.90
20654;DHT22;21083;50.898;4.902;2022-09-09T09:09:29;17.80;99.90
20654;DHT22;21083;50.898;4.902;2022-09-09T09:12:01;17.60;99.90
20654;DHT22;21083;50.898;4.902;2022-09-09T09:14:30;17.60;99.90
20654;DHT22;21083;50.898;4.902;2022-09-09T09:17:01;17.60;99.90
20654;DHT22;21083;50.898;4.902;2022-09-09T09:19:30;17.80;99.90
20654;DHT22;21083;50.898;4.902;2022-09-09T09:22:03;17.70;99.90
20654;DHT22;21083;50.898;4.902;2022-09-09T09:24:41;17.50;99.90
20654;DHT22;21083;50.898;4.902;2022-09-09T09:27:15;17.50;99.90
20654;DHT22;21083;50.898;4.902;2022-09-09T09:29:43;17.30;99.90
20654;DHT22;21083;50.898;4.902;2022-09-09T09:32:15;17.30;99.90
20654;DHT22;21083;50.898;4.902;2022-09-09T09:34:48;17.30;99.90
20654;DHT22;21083;50.898;4.902;2022-09-09T09:37:17;17.20;99.90
20654;DHT22;21083;50.898;4.902;2022-09-09T09:39:47;17.10;99.90
20654;DHT22;21083;50.898;4.902;2022-09-09T09:42:17;17.00;99.90
20654;DHT22;21083;50.898;4.902;2022-09-09T09:44:44;17.00;99.90
20654;DHT22;21083;50.898;4.902;2022-09-09T09:47:12;17.10;99.90
20654;DHT22;21083;50.898;4.902;2022-09-09T09:49:51;17.00;99.90
20654;DHT22;21083;50.898;4.902;2022-09-09T09:52:22;17.10;99.90
20654;DHT22;21083;50.898;4.902;2022-09-09T09:54:50;16.90;99.90
20654;DHT22;21083;50.898;4.902;2022-09-09T09:57:24;16.90;99.90
20654;DHT22;21083;50.898;4.902;2022-09-09T10:00:02;17.00;99.90
20654;DHT22;21083;50.898;4.902;2022-09-09T10:02:37;17.00;99.90
20654;DHT22;21083;50.898;4.902;2022-09-09T10:05:12;16.90;99.90
20654;DHT22;21083;50.898;4.902;2022-09-09T10:07:39;17.00;99.90
20654;DHT22;21083;50.898;4.902;2022-09-09T10:10:11;17.10;99.90
20654;DHT22;21083;50.898;4.902;2022-09-09T10:12:48;17.10;99.90
20654;DHT22;21083;50.898;4.902;2022-09-09T10:15:32;17.10;99.90
20654;DHT22;21083;50.898;4.902;2022-09-09T10:18:14;17.30;99.90
20654;DHT22;21083;50.898;4.902;2022-09-09T10:20:49;17.30;99.90
20654;DHT22;21083;50.898;4.902;2022-09-09T10:23:28;17.40;99.90
20654;DHT22;21083;50.898;4.902;2022-09-09T10:26:04;17.40;99.90
20654;DHT22;21083;50.898;4.902;2022-09-09T10:28:52;17.50;99.90
20654;DHT22;21083;50.898;4.902;2022-09-09T10:31:29;17.50;99.90
20654;DHT22;21083;50.898;4.902;2022-09-09T10:34:12;17.50;99.90
20654;DHT22;21083;50.898;4.902;2022-09-09T10:36:46;17.30;99.90
20654;DHT22;21083;50.898;4.902;2022-09-09T10:39:23;17.30;99.90
20654;DHT22;21083;50.898;4.902;2022-09-09T10:42:02;17.30;99.90
20654;DHT22;21083;50.898;4.902;2022-09-09T10:44:53;17.40;99.90
20654;DHT22;21083;50.898;4.902;2022-09-09T10:47:55;17.40;99.90
20654;DHT22;21083;50.898;4.902;2022-09-09T10:50:42;17.40;99.90
20654;DHT22;21083;50.898;4.902;2022-09-09T10:53:17;17.30;99.90
20654;DHT22;21083;50.898;4.902;2022-09-09T10:55:51;17.40;99.90
20654;DHT22;21083;50.898;4.902;2022-09-09T10:58:22;17.50;99.90
20654;DHT22;21083;50.898;4.902;2022-09-09T11:00:54;17.50;99.90
20654;DHT22;21083;50.898;4.902;2022-09-09T11:03:26;17.50;99.90
20654;DHT22;21083;50.898;4.902;2022-09-09T11:05:57;17.50;99.90
20654;DHT22;21083;50.898;4.902;2022-09-09T11:08:29;17.50;99.90
20654;DHT22;21083;50.898;4.902;2022-09-09T11:11:00;17.60;99.90
20654;DHT22;21083;50.898;4.902;2022-09-09T11:13:34;17.60;99.90
20654;DHT22;21083;50.898;4.902;2022-09-09T11:16:16;17.50;99.90
20654;DHT22;21083;50.898;4.902;2022-09-09T11:18:47;17.50;99.90
20654;DHT22;21083;50.898;4.902;2022-09-09T11:21:19;17.70;99.90
20654;DHT22;21083;50.898;4.902;2022-09-09T11:23:52;17.70;99.90
20654;DHT22;21083;50.898;4.902;2022-09-09T11:26:28;17.80;99.90
20654;DHT22;21083;50.898;4.902;2022-09-09T11:31:54;18.00;99.90
20654;DHT22;21083;50.898;4.902;2022-09-09T11:34:44;18.00;99.90
20654;DHT22;21083;50.898;4.902;2022-09-09T11:37:29;17.90;99.90
20654;DHT22;21083;50.898;4.902;2022-09-09T11:40:22;18.00;99.90
20654;DHT22;21083;50.898;4.902;2022-09-09T11:43:02;18.00;99.90
20654;DHT22;21083;50.898;4.902;2022-09-09T11:45:30;18.20;99.90
20654;DHT22;21083;50.898;4.902;2022-09-09T11:48:00;18.30;99.90
20654;DHT22;21083;50.898;4.902;2022-09-09T11:50:30;18.30;99.90
20654;DHT22;21083;50.898;4.902;2022-09-09T11:53:16;18.30;99.90
20654;DHT22;21083;50.898;4.902;2022-09-09T11:55:46;18.60;99.90
20654;DHT22;21083;50.898;4.902;2022-09-09T11:58:17;18.50;99.90
20654;DHT22;21083;50.898;4.902;2022-09-09T12:00:47;18.40;99.90
20654;DHT22;21083;50.898;4.902;2022-09-09T12:03:38;18.40;99.90
20654;DHT22;21083;50.898;4.902;2022-09-09T12:06:17;18.60;99.90
20654;DHT22;21083;50.898;4.902;2022-09-09T12:08:48;18.50;99.90
20654;DHT22;21083;50.898;4.902;2022-09-09T12:11:25;18.50;99.90
20654;DHT22;21083;50.898;4.902;2022-09-09T12:13:54;18.70;99.90
20654;DHT22;21083;50.898;4.902;2022-09-09T12:16:33;18.80;99.90
20654;DHT22;21083;50.898;4.902;2022-09-09T12:19:12;18.80;99.90
20654;DHT22;21083;50.898;4.902;2022-09-09T12:21:46;18.80;99.90
20654;DHT22;21083;50.898;4.902;2022-09-09T12:24:20;18.80;99.90
20654;DHT22;21083;50.898;4.902;2022-09-09T12:26:53;19.00;99.90
20654;DHT22;21083;50.898;4.902;2022-09-09T12:29:28;19.20;99.90
20654;DHT22;21083;50.898;4.902;2022-09-09T12:32:01;19.40;99.90
20654;DHT22;21083;50.898;4.902;2022-09-09T12:34:38;19.50;99.90
20654;DHT22;21083;50.898;4.902;2022-09-09T12:37:13;19.50;99.90
20654;DHT22;21083;50.898;4.902;2022-09-09T12:39:45;19.20;99.90
20654;DHT22;21083;50.898;4.902;2022-09-09T12:42:19;19.00;99.90
20654;DHT22;21083;50.898;4.902;2022-09-09T12:44:53;19.00;99.90
20654;DHT22;21083;50.898;4.902;2022-09-09T12:47:22;19.00;99.90
20654;DHT22;21083;50.898;4.902;2022-09-09T12:49:52;19.20;99.90
20654;DHT22;21083;50.898;4.902;2022-09-09T12:52:25;19.20;99.90
20654;DHT22;21083;50.898;4.902;2022-09-09T12:54:56;19.30;99.90
20654;DHT22;21083;50.898;4.902;2022-09-09T12:57:24;19.40;99.90
20654;DHT22;21083;50.898;4.902;2022-09-09T12:59:52;19.30;99.90
20654;DHT22;21083;50.898;4.902;2022-09-09T13:02:30;19.40;99.90
20654;DHT22;21083;50.898;4.902;2022-09-09T13:05:06;19.30;99.90
20654;DHT22;21083;50.898;4.902;2022-09-09T13:07:33;19.40;99.90
20654;DHT22;21083;50.898;4.902;2022-09-09T13:10:00;19.40;99.90
20654;DHT22;21083;50.898;4.902;2022-09-09T13:12:27;19.40;99.90
20654;DHT22;21083;50.898;4.902;2022-09-09T13:14:55;19.40;99.90
20654;DHT22;21083;50.898;4.902;2022-09-09T13:17:24;19.40;99.90
20654;DHT22;21083;50.898;4.902;2022-09-09T13:19:53;19.40;99.90
20654;DHT22;21083;50.898;4.902;2022-09-09T13:22:30;19.70;99.90
20654;DHT22;21083;50.898;4.902;2022-09-09T13:25:00;19.70;99.90
20654;DHT22;21083;50.898;4.902;2022-09-09T13:27:30;19.60;99.90
20654;DHT22;21083;50.898;4.902;2022-09-09T13:29:57;19.60;99.90
20654;DHT22;21083;50.898;4.902;2022-09-09T13:32:25;19.40;99.90
20654;DHT22;21083;50.898;4.902;2022-09-09T13:34:54;19.30;99.90
20654;DHT22;21083;50.898;4.902;2022-09-09T13:37:28;19.40;99.90
20654;DHT22;21083;50.898;4.902;2022-09-09T13:39:55;19.60;99.90
20654;DHT22;21083;50.898;4.902;2022-09-09T13:42:25;19.80;99.90
20654;DHT22;21083;50.898;4.902;2022-09-09T13:44:52;19.90;99.90
20654;DHT22;21083;50.898;4.902;2022-09-09T13:47:21;20.10;99.90
20654;DHT22;21083;50.898;4.902;2022-09-09T13:49:53;20.30;99.90
20654;DHT22;21083;50.898;4.902;2022-09-09T13:52:19;20.70;99.90
20654;DHT22;21083;50.898;4.902;2022-09-09T13:54:49;20.70;99.90
20654;DHT22;21083;50.898;4.902;2022-09-09T13:57:18;20.60;99.90
20654;DHT22;21083;50.898;4.902;2022-09-09T13:59:46;20.40;99.90
20654;DHT22;21083;50.898;4.902;2022-09-09T14:02:13;20.40;99.90
20654;DHT22;21083;50.898;4.902;2022-09-09T14:04:42;20.30;99.90
20654;DHT22;21083;50.898;4.902;2022-09-09T14:07:11;20.10;99.90
20654;DHT22;21083;50.898;4.902;2022-09-09T14:09:39;20.20;99.90
20654;DHT22;21083;50.898;4.902;2022-09-09T14:12:09;20.30;99.90
20654;DHT22;21083;50.898;4.902;2022-09-09T14:14:36;20.20;99.90
20654;DHT22;21083;50.898;4.902;2022-09-09T14:17:03;20.20;99.90
20654;DHT22;21083;50.898;4.902;2022-09-09T14:19:30;20.20;99.90
20654;DHT22;21083;50.898;4.902;2022-09-09T14:21:57;20.30;99.90
20654;DHT22;21083;50.898;4.902;2022-09-09T14:24:24;20.40;99.90
20654;DHT22;21083;50.898;4.902;2022-09-09T14:26:52;20.60;99.90
20654;DHT22;21083;50.898;4.902;2022-09-09T14:29:20;20.80;99.90
20654;DHT22;21083;50.898;4.902;2022-09-09T14:31:47;21.10;99.90
20654;DHT22;21083;50.898;4.902;2022-09-09T14:34:13;21.20;99.90
20654;DHT22;21083;50.898;4.902;2022-09-09T14:36:40;21.40;99.90
20654;DHT22;21083;50.898;4.902;2022-09-09T14:39:07;21.50;99.90
20654;DHT22;21083;50.898;4.902;2022-09-09T14:41:34;21.50;99.90
20654;DHT22;21083;50.898;4.902;2022-09-09T14:44:01;21.20;99.90
20654;DHT22;21083;50.898;4.902;2022-09-09T14:46:29;21.10;99.90
20654;DHT22;21083;50.898;4.902;2022-09-09T14:48:57;21.00;99.90
20654;DHT22;21083;50.898;4.902;2022-09-09T14:51:25;20.80;99.90
20654;DHT22;21083;50.898;4.902;2022-09-09T14:53:55;20.80;99.90
20654;DHT22;21083;50.898;4.902;2022-09-09T14:56:25;20.50;99.90
20654;DHT22;21083;50.898;4.902;2022-09-09T14:58:53;20.30;99.90
20654;DHT22;21083;50.898;4.902;2022-09-09T15:01:21;20.40;99.90
20654;DHT22;21083;50.898;4.902;2022-09-09T15:03:54;20.20;99.90
20654;DHT22;21083;50.898;4.902;2022-09-09T15:06:22;20.20;99.90
20654;DHT22;21083;50.898;4.902;2022-09-09T15:08:51;20.40;99.90
20654;DHT22;21083;50.898;4.902;2022-09-09T15:11:18;20.40;99.90
20654;DHT22;21083;50.898;4.902;2022-09-09T15:13:46;20.40;99.90
20654;DHT22;21083;50.898;4.902;2022-09-09T15:16:15;20.40;99.90
20654;DHT22;21083;50.898;4.902;2022-09-09T15:18:43;20.50;99.90
20654;DHT22;21083;50.898;4.902;2022-09-09T15:21:13;20.80;99.90
20654;DHT22;21083;50.898;4.902;2022-09-09T15:23:41;21.10;99.90
20654;DHT22;21083;50.898;4.902;2022-09-09T15:26:08;21.40;99.90
20654;DHT22;21083;50.898;4.902;2022-09-09T15:28:37;21.40;99.90
20654;DHT22;21083;50.898;4.902;2022-09-09T15:31:06;21.60;99.90
20654;DHT22;21083;50.898;4.902;2022-09-09T15:33:34;21.80;99.90
20654;DHT22;21083;50.898;4.902;2022-09-09T15:36:14;21.90;99.90
20654;DHT22;21083;50.898;4.902;2022-09-09T15:38:41;21.90;99.90
20654;DHT22;21083;50.898;4.902;2022-09-09T15:41:09;21.50;99.90
20654;DHT22;21083;50.898;4.902;2022-09-09T15:43:35;21.20;99.90
20654;DHT22;21083;50.898;4.902;2022-09-09T15:46:21;20.80;99.90
20654;DHT22;21083;50.898;4.902;2022-09-09T15:48:51;20.60;99.90
20654;DHT22;21083;50.898;4.902;2022-09-09T15:51:20;20.20;99.90
20654;DHT22;21083;50.898;4.902;2022-09-09T15:53:50;20.00;99.90
20654;DHT22;21083;50.898;4.902;2022-09-09T15:56:19;19.90;99.90
20654;DHT22;21083;50.898;4.902;2022-09-09T15:58:46;19.90;99.90